Terminal Aerodrome Forecast
Issued by NWS Boston, MA

Home | Current Version | Previous Version | Text Only | Print | Product List | Glossary On
Versions: 1 2 3 4 5 6 7 8 9 10 11 12 13 14 15 16 17 18 19 20 21 22 23
000
FTUS41 KBOX 131315 AAA
TAFBDL
TAF AMD
KBDL 131315Z 1313/1418 28014G20KT P6SM SCT025
     FM131400 28014G28KT P6SM BKN045
     FM131900 29020G36KT P6SM SCT050
     FM140000 27014G26KT P6SM SCT250
     FM140300 26009KT P6SM BKN090
     FM140700 25006KT P6SM VCSH OVC060
     FM141400 32009G19KT P6SM BKN080
     FM141600 32010KT P6SM SCT250=

USA.gov is the U.S. government's official web portal to all federal, state and local government web resources and services.